sensor_id;sensor_type;location;lat;lon;timestamp;pressure;altitude;pressure_sealevel;temperature;humidity
56514;BME280;62152;52.078;8.414;2022-11-13T00:01:30;101387.78;;;18.75;53.85
56514;BME280;62152;52.078;8.414;2022-11-13T00:03:11;101378.75;;;18.75;53.85
56514;BME280;62152;52.078;8.414;2022-11-13T00:04:52;101370.16;;;18.76;53.86
56514;BME280;62152;52.078;8.414;2022-11-13T00:06:32;101373.25;;;18.75;53.70
56514;BME280;62152;52.078;8.414;2022-11-13T00:08:13;101377.94;;;18.74;53.83
56514;BME280;62152;52.078;8.414;2022-11-13T00:09:54;101374.03;;;18.75;53.83
56514;BME280;62152;52.078;8.414;2022-11-13T00:11:35;101375.50;;;18.73;53.72
56514;BME280;62152;52.078;8.414;2022-11-13T00:13:16;101377.94;;;18.74;53.72
56514;BME280;62152;52.078;8.414;2022-11-13T00:15:00;101367.75;;;18.75;53.79
56514;BME280;62152;52.078;8.414;2022-11-13T00:16:41;101368.56;;;18.75;53.68
56514;BME280;62152;52.078;8.414;2022-11-13T00:18:22;101371.66;;;18.74;53.67
56514;BME280;62152;52.078;8.414;2022-11-13T00:20:04;101377.94;;;18.74;53.61
56514;BME280;62152;52.078;8.414;2022-11-13T00:21:45;101372.44;;;18.74;53.71
56514;BME280;62152;52.078;8.414;2022-11-13T00:23:26;101373.56;;;18.73;53.95
56514;BME280;62152;52.078;8.414;2022-11-13T00:25:08;101369.22;;;18.72;53.79
56514;BME280;62152;52.078;8.414;2022-11-13T00:26:49;101366.47;;;18.72;53.75
56514;BME280;62152;52.078;8.414;2022-11-13T00:28:30;101365.31;;;18.73;53.79
56514;BME280;62152;52.078;8.414;2022-11-13T00:30:14;101364.88;;;18.71;53.83
56514;BME280;62152;52.078;8.414;2022-11-13T00:31:55;101369.22;;;18.72;53.89
56514;BME280;62152;52.078;8.414;2022-11-13T00:33:36;101369.22;;;18.72;53.65
56514;BME280;62152;52.078;8.414;2022-11-13T00:35:17;101369.22;;;18.72;53.93
56514;BME280;62152;52.078;8.414;2022-11-13T00:36:58;101366.03;;;18.70;53.93
56514;BME280;62152;52.078;8.414;2022-11-13T00:38:39;101364.88;;;18.71;53.78
56514;BME280;62152;52.078;8.414;2022-11-13T00:40:20;101364.88;;;18.71;53.94
56514;BME280;62152;52.078;8.414;2022-11-13T00:42:01;101362.13;;;18.71;53.77
56514;BME280;62152;52.078;8.414;2022-11-13T00:43:42;101362.13;;;18.71;53.79
56514;BME280;62152;52.078;8.414;2022-11-13T00:45:26;101365.66;;;18.72;53.71
56514;BME280;62152;52.078;8.414;2022-11-13T00:47:07;101356.63;;;18.71;53.83
56514;BME280;62152;52.078;8.414;2022-11-13T00:48:48;101358.56;;;18.71;53.92
56514;BME280;62152;52.078;8.414;2022-11-13T00:50:29;101361.31;;;18.71;53.73
56514;BME280;62152;52.078;8.414;2022-11-13T00:52:10;101359.38;;;18.71;53.77
56514;BME280;62152;52.078;8.414;2022-11-13T00:53:51;101355.81;;;18.71;53.70
56514;BME280;62152;52.078;8.414;2022-11-13T00:55:31;101361.31;;;18.71;53.76
56514;BME280;62152;52.078;8.414;2022-11-13T00:57:12;101353.06;;;18.71;53.91
56514;BME280;62152;52.078;8.414;2022-11-13T00:58:53;101352.28;;;18.70;53.84
56514;BME280;62152;52.078;8.414;2022-11-13T01:00:37;101356.19;;;18.69;53.73
56514;BME280;62152;52.078;8.414;2022-11-13T01:02:18;101351.81;;;18.68;53.93
56514;BME280;62152;52.078;8.414;2022-11-13T01:03:59;101354.22;;;18.70;53.88
56514;BME280;62152;52.078;8.414;2022-11-13T01:05:42;101350.31;;;18.71;53.93
56514;BME280;62152;52.078;8.414;2022-11-13T01:07:23;101347.94;;;18.69;53.92
56514;BME280;62152;52.078;8.414;2022-11-13T01:09:04;101346.78;;;18.70;53.94
56514;BME280;62152;52.078;8.414;2022-11-13T01:10:47;101354.22;;;18.70;53.85
56514;BME280;62152;52.078;8.414;2022-11-13T01:12:29;101356.63;;;18.71;53.90
56514;BME280;62152;52.078;8.414;2022-11-13T01:14:10;101348.72;;;18.70;53.92
56514;BME280;62152;52.078;8.414;2022-11-13T01:15:53;101354.22;;;18.70;53.96
56514;BME280;62152;52.078;8.414;2022-11-13T01:17:35;101349.53;;;18.70;54.01
56514;BME280;62152;52.078;8.414;2022-11-13T01:19:16;101348.72;;;18.70;54.03
56514;BME280;62152;52.078;8.414;2022-11-13T01:21:02;101344.03;;;18.70;53.88
56514;BME280;62152;52.078;8.414;2022-11-13T01:22:44;101343.22;;;18.70;53.90
56514;BME280;62152;52.078;8.414;2022-11-13T01:24:25;101346.31;;;18.68;53.95
56514;BME280;62152;52.078;8.414;2022-11-13T01:26:08;101345.63;;;18.71;53.85
56514;BME280;62152;52.078;8.414;2022-11-13T01:27:51;101345.19;;;18.69;53.86
56514;BME280;62152;52.078;8.414;2022-11-13T01:29:32;101345.19;;;18.69;53.96
56514;BME280;62152;52.078;8.414;2022-11-13T01:31:18;101344.72;;;18.67;53.92
56514;BME280;62152;52.078;8.414;2022-11-13T01:33:01;101346.31;;;18.68;54.07
56514;BME280;62152;52.078;8.414;2022-11-13T01:34:42;101340.03;;;18.68;53.80
56514;BME280;62152;52.078;8.414;2022-11-13T01:36:25;101342.44;;;18.69;54.01
56514;BME280;62152;52.078;8.414;2022-11-13T01:38:07;101343.59;;;18.68;53.78
56514;BME280;62152;52.078;8.414;2022-11-13T01:39:48;101344.72;;;18.67;53.88
56514;BME280;62152;52.078;8.414;2022-11-13T01:41:32;101338.44;;;18.67;54.02
56514;BME280;62152;52.078;8.414;2022-11-13T01:43:23;101340.84;;;18.68;53.79
56514;BME280;62152;52.078;8.414;2022-11-13T01:47:47;101336.47;;;18.67;53.81
56514;BME280;62152;52.078;8.414;2022-11-13T01:49:32;101343.22;;;18.70;53.88
56514;BME280;62152;52.078;8.414;2022-11-13T01:51:21;101329.03;;;18.68;53.89
56514;BME280;62152;52.078;8.414;2022-11-13T01:53:06;101333.75;;;18.67;54.11
56514;BME280;62152;52.078;8.414;2022-11-13T01:54:50;101326.63;;;18.66;54.04
56514;BME280;62152;52.078;8.414;2022-11-13T01:56:35;101328.25;;;18.67;54.04
56514;BME280;62152;52.078;8.414;2022-11-13T01:58:17;101321.13;;;18.66;53.98
56514;BME280;62152;52.078;8.414;2022-11-13T02:00:03;101331.00;;;18.67;54.08
56514;BME280;62152;52.078;8.414;2022-11-13T02:01:46;101321.94;;;18.67;54.10
56514;BME280;62152;52.078;8.414;2022-11-13T02:03:30;101324.69;;;18.67;54.14
56514;BME280;62152;52.078;8.414;2022-11-13T02:05:11;101318.38;;;18.66;53.82
56514;BME280;62152;52.078;8.414;2022-11-13T02:06:55;101320.28;;;18.66;53.95
56514;BME280;62152;52.078;8.414;2022-11-13T02:08:39;101320.28;;;18.66;53.97
56514;BME280;62152;52.078;8.414;2022-11-13T02:10:22;101322.22;;;18.65;54.21
56514;BME280;62152;52.078;8.414;2022-11-13T02:12:05;101311.25;;;18.65;54.06
56514;BME280;62152;52.078;8.414;2022-11-13T02:13:48;101310.13;;;18.66;54.02
56514;BME280;62152;52.078;8.414;2022-11-13T02:15:32;101310.13;;;18.66;54.01
56514;BME280;62152;52.078;8.414;2022-11-13T02:17:19;101309.28;;;18.66;54.21
56514;BME280;62152;52.078;8.414;2022-11-13T02:19:18;101310.13;;;18.66;54.22
56514;BME280;62152;52.078;8.414;2022-11-13T02:21:15;101301.88;;;18.66;54.31
56514;BME280;62152;52.078;8.414;2022-11-13T02:23:12;101303.00;;;18.65;54.12
56514;BME280;62152;52.078;8.414;2022-11-13T02:25:03;101308.22;;;18.67;54.01
56514;BME280;62152;52.078;8.414;2022-11-13T02:26:49;101307.38;;;18.66;54.26
56514;BME280;62152;52.078;8.414;2022-11-13T02:28:31;101304.63;;;18.66;54.21
56514;BME280;62152;52.078;8.414;2022-11-13T02:30:17;101300.25;;;18.65;54.19
56514;BME280;62152;52.078;8.414;2022-11-13T02:31:58;101303.00;;;18.65;54.26
56514;BME280;62152;52.078;8.414;2022-11-13T02:33:40;101303.00;;;18.65;54.10
56514;BME280;62152;52.078;8.414;2022-11-13T02:35:30;101306.91;;;18.64;54.28
56514;BME280;62152;52.078;8.414;2022-11-13T02:37:12;101304.63;;;18.66;54.34
56514;BME280;62152;52.078;8.414;2022-11-13T02:38:55;101303.78;;;18.66;54.28
56514;BME280;62152;52.078;8.414;2022-11-13T02:40:43;101302.19;;;18.65;54.19
56514;BME280;62152;52.078;8.414;2022-11-13T02:42:24;101299.13;;;18.66;54.34
56514;BME280;62152;52.078;8.414;2022-11-13T02:44:06;101303.00;;;18.65;54.14
56514;BME280;62152;52.078;8.414;2022-11-13T02:45:47;101299.44;;;18.65;54.23
56514;BME280;62152;52.078;8.414;2022-11-13T02:47:28;101295.09;;;18.64;54.19
56514;BME280;62152;52.078;8.414;2022-11-13T02:49:09;101297.50;;;18.65;54.16
56514;BME280;62152;52.078;8.414;2022-11-13T02:50:50;101297.50;;;18.65;54.34
56514;BME280;62152;52.078;8.414;2022-11-13T02:52:31;101293.16;;;18.64;54.28
56514;BME280;62152;52.078;8.414;2022-11-13T02:54:12;101297.50;;;18.65;54.29
56514;BME280;62152;52.078;8.414;2022-11-13T02:55:56;101294.75;;;18.65;54.28
56514;BME280;62152;52.078;8.414;2022-11-13T02:57:37;101293.16;;;18.64;54.33
56514;BME280;62152;52.078;8.414;2022-11-13T02:59:17;101295.91;;;18.64;54.28
56514;BME280;62152;52.078;8.414;2022-11-13T03:01:00;101298.66;;;18.64;54.39
56514;BME280;62152;52.078;8.414;2022-11-13T03:02:41;101293.97;;;18.65;54.19
56514;BME280;62152;52.078;8.414;2022-11-13T03:04:22;101285.72;;;18.65;54.20
56514;BME280;62152;52.078;8.414;2022-11-13T03:06:04;101284.13;;;18.64;54.11
56514;BME280;62152;52.078;8.414;2022-11-13T03:07:45;101288.81;;;18.63;54.24
56514;BME280;62152;52.078;8.414;2022-11-13T03:09:26;101284.13;;;18.64;54.44
56514;BME280;62152;52.078;8.414;2022-11-13T03:11:10;101283.31;;;18.63;54.45
56514;BME280;62152;52.078;8.414;2022-11-13T03:12:52;101283.31;;;18.63;54.42
56514;BME280;62152;52.078;8.414;2022-11-13T03:14:33;101275.06;;;18.63;54.42
56514;BME280;62152;52.078;8.414;2022-11-13T03:16:15;101277.81;;;18.63;54.29
56514;BME280;62152;52.078;8.414;2022-11-13T03:17:56;101269.56;;;18.63;54.29
56514;BME280;62152;52.078;8.414;2022-11-13T03:19:37;101265.22;;;18.62;54.48
56514;BME280;62152;52.078;8.414;2022-11-13T03:21:21;101266.81;;;18.63;54.33
56514;BME280;62152;52.078;8.414;2022-11-13T03:23:02;101265.22;;;18.62;54.28
56514;BME280;62152;52.078;8.414;2022-11-13T03:24:44;101266.03;;;18.63;54.22
56514;BME280;62152;52.078;8.414;2022-11-13T03:26:27;101258.59;;;18.63;54.37
56514;BME280;62152;52.078;8.414;2022-11-13T03:28:08;101254.25;;;18.62;54.32
56514;BME280;62152;52.078;8.414;2022-11-13T03:29:49;101260.53;;;18.63;54.54
56514;BME280;62152;52.078;8.414;2022-11-13T03:31:30;101252.28;;;18.63;54.44
56514;BME280;62152;52.078;8.414;2022-11-13T03:33:11;101249.53;;;18.63;54.33
56514;BME280;62152;52.078;8.414;2022-11-13T03:34:52;101250.34;;;18.63;54.49
56514;BME280;62152;52.078;8.414;2022-11-13T03:36:33;101251.50;;;18.62;54.30
56514;BME280;62152;52.078;8.414;2022-11-13T03:38:14;101245.56;;;18.60;54.54
56514;BME280;62152;52.078;8.414;2022-11-13T03:39:55;101245.19;;;18.62;54.48
56514;BME280;62152;52.078;8.414;2022-11-13T03:41:38;101247.16;;;18.61;54.37
56514;BME280;62152;52.078;8.414;2022-11-13T03:43:19;101247.16;;;18.61;54.49
56514;BME280;62152;52.078;8.414;2022-11-13T03:45:00;101245.56;;;18.60;54.37
56514;BME280;62152;52.078;8.414;2022-11-13T03:46:41;101247.16;;;18.61;54.57
56514;BME280;62152;52.078;8.414;2022-11-13T03:48:22;101246.34;;;18.61;54.47
56514;BME280;62152;52.078;8.414;2022-11-13T03:50:04;101252.63;;;18.61;54.59
56514;BME280;62152;52.078;8.414;2022-11-13T03:51:46;101248.75;;;18.62;54.43
56514;BME280;62152;52.078;8.414;2022-11-13T03:53:27;101251.84;;;18.61;54.46
56514;BME280;62152;52.078;8.414;2022-11-13T03:55:08;101247.47;;;18.59;54.69
56514;BME280;62152;52.078;8.414;2022-11-13T03:56:51;101241.66;;;18.61;54.57
56514;BME280;62152;52.078;8.414;2022-11-13T03:58:32;101237.31;;;18.60;54.57
56514;BME280;62152;52.078;8.414;2022-11-13T04:00:14;101234.56;;;18.60;54.65
56514;BME280;62152;52.078;8.414;2022-11-13T04:01:56;101234.56;;;18.60;54.71
56514;BME280;62152;52.078;8.414;2022-11-13T04:03:37;101238.44;;;18.59;54.66
56514;BME280;62152;52.078;8.414;2022-11-13T04:05:18;101230.97;;;18.59;54.63
56514;BME280;62152;52.078;8.414;2022-11-13T04:06:59;101233.72;;;18.59;54.70
56514;BME280;62152;52.078;8.414;2022-11-13T04:08:40;101231.81;;;18.60;54.62
56514;BME280;62152;52.078;8.414;2022-11-13T04:10:21;101230.19;;;18.59;54.53
56514;BME280;62152;52.078;8.414;2022-11-13T04:12:05;101237.31;;;18.60;54.41
56514;BME280;62152;52.078;8.414;2022-11-13T04:13:46;101237.31;;;18.60;54.56
56514;BME280;62152;52.078;8.414;2022-11-13T04:15:27;101238.09;;;18.61;54.48
56514;BME280;62152;52.078;8.414;2022-11-13T04:17:08;101231.47;;;18.62;54.87
56514;BME280;62152;52.078;8.414;2022-11-13T04:18:49;101232.59;;;18.61;54.69
56514;BME280;62152;52.078;8.414;2022-11-13T04:20:30;101230.66;;;18.61;54.71
56514;BME280;62152;52.078;8.414;2022-11-13T04:22:12;101229.06;;;18.60;54.75
56514;BME280;62152;52.078;8.414;2022-11-13T04:23:53;101229.06;;;18.60;54.78
56514;BME280;62152;52.078;8.414;2022-11-13T04:25:34;101227.44;;;18.59;54.66
56514;BME280;62152;52.078;8.414;2022-11-13T04:27:17;101223.56;;;18.60;54.67
56514;BME280;62152;52.078;8.414;2022-11-13T04:28:58;101225.47;;;18.59;54.75
56514;BME280;62152;52.078;8.414;2022-11-13T04:30:39;101227.44;;;18.59;54.66
56514;BME280;62152;52.078;8.414;2022-11-13T04:32:20;101227.44;;;18.59;54.65
56514;BME280;62152;52.078;8.414;2022-11-13T04:34:01;101227.44;;;18.59;54.65
56514;BME280;62152;52.078;8.414;2022-11-13T04:35:42;101227.44;;;18.59;54.76
56514;BME280;62152;52.078;8.414;2022-11-13T04:37:23;101225.84;;;18.58;54.85
56514;BME280;62152;52.078;8.414;2022-11-13T04:39:04;101229.38;;;18.58;54.73
56514;BME280;62152;52.078;8.414;2022-11-13T04:40:48;101224.69;;;18.59;54.67
56514;BME280;62152;52.078;8.414;2022-11-13T04:42:32;101221.94;;;18.59;54.81
56514;BME280;62152;52.078;8.414;2022-11-13T04:44:13;101221.13;;;18.58;54.79
56514;BME280;62152;52.078;8.414;2022-11-13T04:45:54;101220.34;;;18.58;54.63
56514;BME280;62152;52.078;8.414;2022-11-13T04:47:35;101214.84;;;18.58;54.55
56514;BME280;62152;52.078;8.414;2022-11-13T04:49:16;101210.16;;;18.58;54.87
56514;BME280;62152;52.078;8.414;2022-11-13T04:50:57;101207.75;;;18.57;54.56
56514;BME280;62152;52.078;8.414;2022-11-13T04:52:39;101207.41;;;18.58;54.65
56514;BME280;62152;52.078;8.414;2022-11-13T04:54:20;101216.78;;;18.57;54.73
56514;BME280;62152;52.078;8.414;2022-11-13T04:56:01;101208.19;;;18.59;54.88
56514;BME280;62152;52.078;8.414;2022-11-13T04:57:44;101209.34;;;18.58;54.67
56514;BME280;62152;52.078;8.414;2022-11-13T04:59:25;101209.34;;;18.58;54.74
56514;BME280;62152;52.078;8.414;2022-11-13T05:01:06;101205.00;;;18.57;54.73
56514;BME280;62152;52.078;8.414;2022-11-13T05:02:47;101201.47;;;18.56;54.76
56514;BME280;62152;52.078;8.414;2022-11-13T05:04:28;101202.25;;;18.57;54.72
56514;BME280;62152;52.078;8.414;2022-11-13T05:06:10;101207.75;;;18.57;54.74
56514;BME280;62152;52.078;8.414;2022-11-13T05:07:51;101197.56;;;18.57;54.74
56514;BME280;62152;52.078;8.414;2022-11-13T05:09:32;101199.50;;;18.57;54.87
56514;BME280;62152;52.078;8.414;2022-11-13T05:11:13;101190.47;;;18.56;54.73
56514;BME280;62152;52.078;8.414;2022-11-13T05:12:57;101191.28;;;18.57;54.80
56514;BME280;62152;52.078;8.414;2022-11-13T05:14:39;101190.13;;;18.58;54.92
56514;BME280;62152;52.078;8.414;2022-11-13T05:16:20;101183.03;;;18.57;54.97
56514;BME280;62152;52.078;8.414;2022-11-13T05:18:01;101191.28;;;18.57;54.86
56514;BME280;62152;52.078;8.414;2022-11-13T05:19:42;101182.59;;;18.55;54.98
56514;BME280;62152;52.078;8.414;2022-11-13T05:21:23;101184.19;;;18.56;54.88
56514;BME280;62152;52.078;8.414;2022-11-13T05:23:04;101176.72;;;18.56;54.98
56514;BME280;62152;52.078;8.414;2022-11-13T05:24:45;101171.59;;;18.55;54.89
56514;BME280;62152;52.078;8.414;2022-11-13T05:26:26;101175.94;;;18.56;54.94
56514;BME280;62152;52.078;8.414;2022-11-13T05:28:10;101175.13;;;18.55;54.97
56514;BME280;62152;52.078;8.414;2022-11-13T05:29:51;101176.72;;;18.56;54.91
56514;BME280;62152;52.078;8.414;2022-11-13T05:31:32;101184.19;;;18.56;54.79
56514;BME280;62152;52.078;8.414;2022-11-13T05:33:13;101180.63;;;18.55;55.08
56514;BME280;62152;52.078;8.414;2022-11-13T05:34:54;101189.66;;;18.56;54.75
56514;BME280;62152;52.078;8.414;2022-11-13T05:36:35;101177.09;;;18.55;54.89
56514;BME280;62152;52.078;8.414;2022-11-13T05:38:15;101183.38;;;18.55;55.03
56514;BME280;62152;52.078;8.414;2022-11-13T05:39:56;101177.09;;;18.55;55.03
56514;BME280;62152;52.078;8.414;2022-11-13T05:41:37;101177.53;;;18.57;55.05
56514;BME280;62152;52.078;8.414;2022-11-13T05:43:21;101170.44;;;18.56;55.05
56514;BME280;62152;52.078;8.414;2022-11-13T05:45:02;101181.44;;;18.56;54.99
56514;BME280;62152;52.078;8.414;2022-11-13T05:46:43;101178.69;;;18.56;54.87
56514;BME280;62152;52.078;8.414;2022-11-13T05:48:24;101175.13;;;18.55;54.83
56514;BME280;62152;52.078;8.414;2022-11-13T05:50:06;101177.09;;;18.55;54.91
56514;BME280;62152;52.078;8.414;2022-11-13T05:51:48;101182.59;;;18.55;54.91
56514;BME280;62152;52.078;8.414;2022-11-13T05:53:29;101178.69;;;18.56;54.95
56514;BME280;62152;52.078;8.414;2022-11-13T05:55:10;101180.63;;;18.55;54.90
56514;BME280;62152;52.078;8.414;2022-11-13T05:56:51;101172.38;;;18.55;55.13
56514;BME280;62152;52.078;8.414;2022-11-13T05:58:35;101172.75;;;18.54;54.90
56514;BME280;62152;52.078;8.414;2022-11-13T06:00:17;101173.53;;;18.54;55.01
56514;BME280;62152;52.078;8.414;2022-11-13T06:01:58;101174.34;;;18.55;55.04
56514;BME280;62152;52.078;8.414;2022-11-13T06:03:39;101164.50;;;18.54;54.79
56514;BME280;62152;52.078;8.414;2022-11-13T06:05:20;101160.59;;;18.55;55.14
56514;BME280;62152;52.078;8.414;2022-11-13T06:07:00;101167.25;;;18.54;54.86
56514;BME280;62152;52.078;8.414;2022-11-13T06:08:42;101159.00;;;18.54;55.04
56514;BME280;62152;52.078;8.414;2022-11-13T06:10:24;101162.91;;;18.53;55.00
56514;BME280;62152;52.078;8.414;2022-11-13T06:12:05;101156.25;;;18.54;54.94
56514;BME280;62152;52.078;8.414;2022-11-13T06:13:50;101156.25;;;18.54;55.18
56514;BME280;62152;52.078;8.414;2022-11-13T06:15:32;101157.50;;;18.56;54.95
56514;BME280;62152;52.078;8.414;2022-11-13T06:17:13;101142.63;;;18.57;54.77
56514;BME280;62152;52.078;8.414;2022-11-13T06:18:56;101144.22;;;18.58;54.79
56514;BME280;62152;52.078;8.414;2022-11-13T06:20:38;101142.63;;;18.57;55.03
56514;BME280;62152;52.078;8.414;2022-11-13T06:22:19;101141.00;;;18.56;54.83
56514;BME280;62152;52.078;8.414;2022-11-13T06:24:01;101134.72;;;18.56;54.86
56514;BME280;62152;52.078;8.414;2022-11-13T06:25:43;101127.63;;;18.55;54.99
56514;BME280;62152;52.078;8.414;2022-11-13T06:27:24;101133.47;;;18.53;54.94
56514;BME280;62152;52.078;8.414;2022-11-13T06:29:10;101140.09;;;18.52;54.93
56514;BME280;62152;52.078;8.414;2022-11-13T06:30:51;101134.59;;;18.52;54.94
56514;BME280;62152;52.078;8.414;2022-11-13T06:32:32;101140.94;;;18.53;54.82
56514;BME280;62152;52.078;8.414;2022-11-13T06:34:13;101132.69;;;18.53;54.75
56514;BME280;62152;52.078;8.414;2022-11-13T06:35:54;101134.59;;;18.52;54.77
56514;BME280;62152;52.078;8.414;2022-11-13T06:37:35;101131.06;;;18.52;54.72
56514;BME280;62152;52.078;8.414;2022-11-13T06:39:16;101133.81;;;18.52;54.67
56514;BME280;62152;52.078;8.414;2022-11-13T06:40:57;101132.22;;;18.51;54.89
56514;BME280;62152;52.078;8.414;2022-11-13T06:42:38;101134.16;;;18.50;54.87
56514;BME280;62152;52.078;8.414;2022-11-13T06:44:22;101134.16;;;18.50;54.63
56514;BME280;62152;52.078;8.414;2022-11-13T06:46:04;101134.94;;;18.51;54.61
56514;BME280;62152;52.078;8.414;2022-11-13T06:47:48;101127.50;;;18.51;54.65
56514;BME280;62152;52.078;8.414;2022-11-13T06:49:29;101130.59;;;18.50;54.42
56514;BME280;62152;52.078;8.414;2022-11-13T06:51:13;101127.88;;;18.50;54.50
56514;BME280;62152;52.078;8.414;2022-11-13T06:52:55;101127.88;;;18.50;54.68
56514;BME280;62152;52.078;8.414;2022-11-13T06:54:36;101129.81;;;18.49;54.41
56514;BME280;62152;52.078;8.414;2022-11-13T06:56:18;101123.53;;;18.49;54.39
56514;BME280;62152;52.078;8.414;2022-11-13T06:57:59;101130.16;;;18.48;54.52
56514;BME280;62152;52.078;8.414;2022-11-13T06:59:42;101127.41;;;18.48;54.44
56514;BME280;62152;52.078;8.414;2022-11-13T07:01:24;101120.78;;;18.49;54.53
56514;BME280;62152;52.078;8.414;2022-11-13T07:03:14;101132.13;;;18.47;54.32
56514;BME280;62152;52.078;8.414;2022-11-13T07:04:56;101126.63;;;18.47;54.25
56514;BME280;62152;52.078;8.414;2022-11-13T07:06:37;101125.81;;;18.47;54.42
56514;BME280;62152;52.078;8.414;2022-11-13T07:08:18;101127.41;;;18.48;54.31
56514;BME280;62152;52.078;8.414;2022-11-13T07:09:59;101128.56;;;18.47;54.11
56514;BME280;62152;52.078;8.414;2022-11-13T07:11:40;101120.31;;;18.47;54.14
56514;BME280;62152;52.078;8.414;2022-11-13T07:13:21;101127.78;;;18.46;54.06
56514;BME280;62152;52.078;8.414;2022-11-13T07:15:06;101121.44;;;18.46;54.11
56514;BME280;62152;52.078;8.414;2022-11-13T07:16:47;101118.69;;;18.46;54.19
56514;BME280;62152;52.078;8.414;2022-11-13T07:18:28;101129.69;;;18.46;54.15
56514;BME280;62152;52.078;8.414;2022-11-13T07:20:10;101123.06;;;18.47;53.97
56514;BME280;62152;52.078;8.414;2022-11-13T07:21:51;101119.97;;;18.48;54.03
56514;BME280;62152;52.078;8.414;2022-11-13T07:23:32;101114.03;;;18.46;53.96
56514;BME280;62152;52.078;8.414;2022-11-13T07:25:13;101122.28;;;18.46;54.01
56514;BME280;62152;52.078;8.414;2022-11-13T07:26:54;101121.91;;;18.48;53.69
56514;BME280;62152;52.078;8.414;2022-11-13T07:28:35;101121.91;;;18.48;53.93
56514;BME280;62152;52.078;8.414;2022-11-13T07:30:19;101112.53;;;18.49;53.64
56514;BME280;62152;52.078;8.414;2022-11-13T07:32:00;101118.81;;;18.49;53.50
56514;BME280;62152;52.078;8.414;2022-11-13T07:33:42;101107.84;;;18.49;53.76
56514;BME280;62152;52.078;8.414;2022-11-13T07:35:23;101114.94;;;18.50;53.79
56514;BME280;62152;52.078;8.414;2022-11-13T07:37:04;101108.28;;;18.51;53.59
56514;BME280;62152;52.078;8.414;2022-11-13T07:38:45;101117.31;;;18.52;53.62
56514;BME280;62152;52.078;8.414;2022-11-13T07:40:26;101120.06;;;18.52;53.39
56514;BME280;62152;52.078;8.414;2022-11-13T07:42:06;101115.28;;;18.49;53.62
56514;BME280;62152;52.078;8.414;2022-11-13T07:43:47;101117.81;;;18.42;53.06
56514;BME280;62152;52.078;8.414;2022-11-13T07:45:31;101114.63;;;18.40;53.87
56514;BME280;62152;52.078;8.414;2022-11-13T07:47:12;101110.59;;;18.37;52.84
56514;BME280;62152;52.078;8.414;2022-11-13T07:48:53;101105.00;;;18.34;53.37
56514;BME280;62152;52.078;8.414;2022-11-13T07:50:36;101107.28;;;18.31;52.50
56514;BME280;62152;52.078;8.414;2022-11-13T07:52:17;101107.28;;;18.31;52.38
56514;BME280;62152;52.078;8.414;2022-11-13T07:53:58;101105.09;;;18.37;51.18
56514;BME280;62152;52.078;8.414;2022-11-13T07:55:39;101098.94;;;18.40;51.34
56514;BME280;62152;52.078;8.414;2022-11-13T07:57:20;101093.09;;;18.42;51.18
56514;BME280;62152;52.078;8.414;2022-11-13T07:59:01;101103.38;;;18.45;50.89
56514;BME280;62152;52.078;8.414;2022-11-13T08:00:44;101103.84;;;18.47;50.88
56514;BME280;62152;52.078;8.414;2022-11-13T08:02:25;101099.94;;;18.48;50.80
56514;BME280;62152;52.078;8.414;2022-11-13T08:04:06;101097.19;;;18.48;50.98
56514;BME280;62152;52.078;8.414;2022-11-13T08:05:47;101104.66;;;18.47;51.46
56514;BME280;62152;52.078;8.414;2022-11-13T08:07:28;101104.66;;;18.47;51.54
56514;BME280;62152;52.078;8.414;2022-11-13T08:09:09;101108.19;;;18.48;51.22
56514;BME280;62152;52.078;8.414;2022-11-13T08:10:50;101111.72;;;18.48;51.28
56514;BME280;62152;52.078;8.414;2022-11-13T08:12:31;101108.63;;;18.50;51.47
56514;BME280;62152;52.078;8.414;2022-11-13T08:14:12;101104.28;;;18.49;51.53
56514;BME280;62152;52.078;8.414;2022-11-13T08:15:57;101112.53;;;18.49;51.44
56514;BME280;62152;52.078;8.414;2022-11-13T08:17:39;101112.19;;;18.50;51.50
56514;BME280;62152;52.078;8.414;2022-11-13T08:19:20;101114.13;;;18.50;51.55
56514;BME280;62152;52.078;8.414;2022-11-13T08:21:03;101114.13;;;18.50;51.56
56514;BME280;62152;52.078;8.414;2022-11-13T08:22:44;101110.59;;;18.49;51.40
56514;BME280;62152;52.078;8.414;2022-11-13T08:24:25;101118.47;;;18.51;51.49
56514;BME280;62152;52.078;8.414;2022-11-13T08:26:06;101122.00;;;18.51;51.69
56514;BME280;62152;52.078;8.414;2022-11-13T08:27:48;101111.03;;;18.51;51.76
56514;BME280;62152;52.078;8.414;2022-11-13T08:29:31;101117.31;;;18.52;51.66
56514;BME280;62152;52.078;8.414;2022-11-13T08:31:15;101110.69;;;18.53;51.30
56514;BME280;62152;52.078;8.414;2022-11-13T08:32:56;101115.06;;;18.54;51.45
56514;BME280;62152;52.078;8.414;2022-11-13T08:34:37;101109.88;;;18.52;51.74
56514;BME280;62152;52.078;8.414;2022-11-13T08:36:18;101109.56;;;18.54;51.90
56514;BME280;62152;52.078;8.414;2022-11-13T08:38:00;101105.22;;;18.53;51.88
56514;BME280;62152;52.078;8.414;2022-11-13T08:39:42;101100.16;;;18.55;51.73
56514;BME280;62152;52.078;8.414;2022-11-13T08:41:23;101104.16;;;18.57;51.56
56514;BME280;62152;52.078;8.414;2022-11-13T08:43:04;101100.59;;;18.57;51.46
56514;BME280;62152;52.078;8.414;2022-11-13T08:44:45;101097.06;;;18.56;51.35
56514;BME280;62152;52.078;8.414;2022-11-13T08:46:28;101083.31;;;18.56;51.53
56514;BME280;62152;52.078;8.414;2022-11-13T08:48:09;101090.41;;;18.57;51.69
56514;BME280;62152;52.078;8.414;2022-11-13T08:49:50;101097.50;;;18.58;51.47
56514;BME280;62152;52.078;8.414;2022-11-13T08:51:31;101090.41;;;18.57;51.45
56514;BME280;62152;52.078;8.414;2022-11-13T08:53:12;101086.06;;;18.56;51.50
56514;BME280;62152;52.078;8.414;2022-11-13T08:54:53;101090.41;;;18.57;51.39
56514;BME280;62152;52.078;8.414;2022-11-13T08:56:34;101085.28;;;18.56;51.61